createdAt,value
2023-04-16T00:02:14.444Z,9.23
2023-04-16T00:04:41.976Z,9.21
2023-04-16T00:07:10.824Z,9.19
2023-04-16T00:09:38.160Z,9.19
2023-04-16T00:12:06.350Z,9.18
2023-04-16T00:14:33.789Z,9.16
2023-04-16T00:17:01.094Z,9.15
2023-04-16T00:19:28.455Z,9.10
2023-04-16T00:21:55.695Z,9.11
2023-04-16T00:24:24.326Z,9.06
2023-04-16T00:26:52.164Z,9.07
2023-04-16T00:29:19.393Z,8.99
2023-04-16T00:31:46.680Z,8.98
2023-04-16T00:34:13.945Z,9.00
2023-04-16T00:36:41.259Z,8.94
2023-04-16T00:39:09.139Z,8.94
2023-04-16T00:41:37.903Z,8.95
2023-04-16T00:44:05.116Z,8.93
2023-04-16T00:46:32.586Z,8.91
2023-04-16T00:49:00.599Z,8.89
2023-04-16T00:51:28.246Z,8.90
2023-04-16T00:53:57.072Z,8.86
2023-04-16T00:56:24.945Z,8.89
2023-04-16T00:58:54.635Z,8.87
2023-04-16T01:01:21.955Z,8.81
2023-04-16T01:03:50.292Z,8.82
2023-04-16T01:06:18.212Z,8.83
2023-04-16T01:08:46.830Z,8.85
2023-04-16T01:11:15.074Z,8.86
2023-04-16T01:13:42.403Z,8.80
2023-04-16T01:16:12.187Z,8.76
2023-04-16T01:18:40.062Z,8.78
2023-04-16T01:21:08.720Z,8.69
2023-04-16T01:23:35.906Z,8.70
2023-04-16T01:26:03.359Z,8.70
2023-04-16T01:28:30.674Z,8.68
2023-04-16T01:30:58.002Z,8.69
2023-04-16T01:33:50.644Z,8.69
2023-04-16T01:36:19.316Z,8.70
2023-04-16T01:38:46.708Z,8.71
2023-04-16T01:41:14.049Z,8.63
2023-04-16T01:43:42.302Z,8.66
2023-04-16T01:46:14.305Z,8.65
2023-04-16T01:48:41.820Z,8.64
2023-04-16T01:51:09.093Z,8.70
2023-04-16T01:53:37.882Z,8.71
2023-04-16T01:56:06.392Z,8.65
2023-04-16T01:58:33.722Z,8.62
2023-04-16T02:01:01.352Z,8.64
2023-04-16T02:03:28.976Z,8.66
2023-04-16T02:05:56.393Z,8.64
2023-04-16T02:08:23.852Z,8.61
2023-04-16T02:10:52.534Z,8.68
2023-04-16T02:13:19.876Z,8.62
2023-04-16T02:15:49.086Z,8.55
2023-04-16T02:18:21.046Z,8.53
2023-04-16T02:20:48.850Z,8.59
2023-04-16T02:23:16.268Z,8.51
2023-04-16T02:25:46.819Z,8.52
2023-04-16T02:28:17.366Z,8.51
2023-04-16T02:30:46.540Z,8.43
2023-04-16T02:33:16.116Z,8.45
2023-04-16T02:35:53.969Z,8.47
2023-04-16T02:38:21.334Z,8.46
2023-04-16T02:40:48.593Z,8.44
2023-04-16T02:43:18.331Z,8.47
2023-04-16T02:45:45.741Z,8.45
2023-04-16T02:48:13.150Z,8.40
2023-04-16T02:50:40.366Z,8.43
2023-04-16T02:53:07.555Z,8.47
2023-04-16T02:55:34.734Z,8.49
2023-04-16T02:58:02.224Z,8.52
2023-04-16T03:00:30.837Z,8.51
2023-04-16T03:02:58.302Z,8.51
2023-04-16T03:05:25.732Z,8.48
2023-04-16T03:07:53.084Z,8.48
2023-04-16T03:10:20.348Z,8.45
2023-04-16T03:12:47.617Z,8.47
2023-04-16T03:15:15.033Z,8.47
2023-04-16T03:17:43.889Z,8.46
2023-04-16T03:20:11.740Z,8.45
2023-04-16T03:22:38.989Z,8.47
2023-04-16T03:25:07.012Z,8.47
2023-04-16T03:27:35.479Z,8.50
2023-04-16T03:30:03.124Z,8.49
2023-04-16T03:32:31.454Z,8.44
2023-04-16T03:35:00.218Z,8.44
2023-04-16T03:37:27.815Z,8.47
2023-04-16T03:39:55.124Z,8.46
2023-04-16T03:42:22.483Z,8.45
2023-04-16T03:44:49.763Z,8.42
2023-04-16T03:47:17.852Z,8.38
2023-04-16T03:49:46.325Z,8.43
2023-04-16T03:52:15.429Z,8.36
2023-04-16T03:54:43.190Z,8.41
2023-04-16T03:57:20.764Z,8.33
2023-04-16T03:59:48.424Z,8.36
2023-04-16T04:02:17.751Z,8.36
2023-04-16T04:04:45.873Z,8.34
2023-04-16T04:07:13.221Z,8.34
2023-04-16T04:09:42.583Z,8.32
2023-04-16T04:12:10.128Z,8.34
2023-04-16T04:14:39.173Z,8.38
2023-04-16T04:17:09.053Z,8.41
2023-04-16T04:19:36.959Z,8.32
2023-04-16T04:22:06.565Z,8.33
2023-04-16T04:24:33.841Z,8.29
2023-04-16T04:27:02.574Z,8.30
2023-04-16T04:29:30.063Z,8.30
2023-04-16T04:31:57.398Z,8.30
2023-04-16T04:34:24.816Z,8.33
2023-04-16T04:36:52.097Z,8.31
2023-04-16T04:39:20.288Z,8.35
2023-04-16T04:41:49.179Z,8.35
2023-04-16T04:44:20.678Z,8.34
2023-04-16T04:46:47.926Z,8.34
2023-04-16T04:49:15.171Z,8.32
2023-04-16T04:51:42.523Z,8.37
2023-04-16T04:54:10.025Z,8.41
2023-04-16T04:56:37.331Z,8.43
2023-04-16T04:59:04.499Z,8.50
2023-04-16T05:01:33.345Z,8.49
2023-04-16T05:04:00.733Z,8.52
2023-04-16T05:06:29.685Z,8.52
2023-04-16T05:08:57.159Z,8.59
2023-04-16T05:11:24.525Z,8.58
2023-04-16T05:13:51.751Z,8.59
2023-04-16T05:16:19.169Z,8.59
2023-04-16T05:18:47.770Z,8.67
2023-04-16T05:21:15.017Z,8.65
2023-04-16T05:23:42.317Z,8.64
2023-04-16T05:26:09.624Z,8.71
2023-04-16T05:28:36.784Z,8.77
2023-04-16T05:31:04.229Z,8.79
2023-04-16T05:33:31.463Z,8.81
2023-04-16T05:36:00.151Z,8.84
2023-04-16T05:38:27.456Z,8.91
2023-04-16T05:40:55.303Z,8.97
2023-04-16T05:43:22.484Z,8.90
2023-04-16T05:45:49.741Z,8.93
2023-04-16T05:48:17.193Z,8.97
2023-04-16T05:50:44.537Z,9.02
2023-04-16T05:53:13.191Z,9.09
2023-04-16T05:55:40.550Z,9.18
2023-04-16T05:58:07.725Z,9.21
2023-04-16T06:00:35.760Z,9.21
2023-04-16T06:03:03.399Z,9.31
2023-04-16T06:05:31.266Z,9.40
2023-04-16T06:07:58.473Z,9.32
2023-04-16T06:10:27.258Z,9.48
2023-04-16T06:12:54.560Z,9.39
2023-04-16T06:15:21.835Z,9.49
2023-04-16T06:17:49.660Z,9.45
2023-04-16T06:20:17.181Z,9.48
2023-04-16T06:22:44.339Z,9.56
2023-04-16T06:25:11.760Z,9.49
2023-04-16T06:27:40.343Z,9.42
2023-04-16T06:30:12.362Z,9.44
2023-04-16T06:32:39.913Z,9.43
2023-04-16T06:35:08.624Z,9.48
2023-04-16T06:37:36.016Z,9.43
2023-04-16T06:40:03.787Z,9.50
2023-04-16T06:42:31.279Z,9.50
2023-04-16T06:44:59.960Z,9.70
2023-04-16T06:47:27.365Z,9.67
2023-04-16T06:49:54.649Z,9.75
2023-04-16T06:52:21.977Z,9.88
2023-04-16T06:54:49.390Z,9.79
2023-04-16T06:57:16.806Z,9.65
2023-04-16T06:59:44.326Z,9.62
2023-04-16T07:02:13.250Z,9.62
2023-04-16T07:04:40.521Z,9.60
2023-04-16T07:07:08.518Z,9.62
2023-04-16T07:09:35.724Z,9.86
2023-04-16T07:12:03.457Z,9.70
2023-04-16T07:14:31.045Z,9.67
2023-04-16T07:16:58.341Z,9.75
2023-04-16T07:19:26.995Z,9.79
2023-04-16T07:21:54.354Z,9.73
2023-04-16T07:24:22.203Z,9.77
2023-04-16T07:26:49.485Z,9.76
2023-04-16T07:29:16.776Z,9.85
2023-04-16T07:31:45.169Z,9.85
2023-04-16T07:34:12.446Z,9.86
2023-04-16T07:36:41.165Z,9.73
2023-04-16T07:39:08.935Z,10.01
2023-04-16T07:41:36.865Z,9.84
2023-04-16T07:44:04.402Z,9.96
2023-04-16T07:46:45.574Z,10.04
2023-04-16T07:49:14.226Z,10.24
2023-04-16T07:51:42.797Z,10.21
2023-04-16T07:54:10.650Z,10.43
2023-04-16T07:56:37.955Z,10.33
2023-04-16T07:59:18.407Z,10.43
2023-04-16T08:01:49.943Z,10.32
2023-04-16T08:04:17.853Z,10.27
2023-04-16T08:06:46.773Z,10.33
2023-04-16T08:09:13.952Z,10.49
2023-04-16T08:11:41.601Z,10.47
2023-04-16T08:14:08.983Z,10.54
2023-04-16T08:16:36.367Z,10.63
2023-04-16T08:19:03.574Z,10.66
2023-04-16T08:21:30.859Z,10.71
2023-04-16T08:23:59.709Z,10.67
2023-04-16T08:26:26.921Z,10.69
2023-04-16T08:28:54.061Z,10.89
2023-04-16T08:31:21.502Z,10.82
2023-04-16T08:33:48.800Z,10.86
2023-04-16T08:36:16.057Z,10.98
2023-04-16T08:38:43.258Z,10.90
2023-04-16T08:41:13.374Z,11.02
2023-04-16T08:43:44.879Z,11.13
2023-04-16T08:46:12.695Z,11.05
2023-04-16T08:48:42.227Z,11.41
2023-04-16T08:51:11.502Z,11.55
2023-04-16T08:53:48.295Z,11.57
2023-04-16T08:56:20.910Z,11.68
2023-04-16T08:58:49.948Z,11.98
2023-04-16T09:01:18.912Z,12.03
2023-04-16T09:03:48.168Z,12.33
2023-04-16T09:06:15.886Z,12.08
2023-04-16T09:08:45.142Z,12.29
2023-04-16T09:11:13.882Z,12.13
2023-04-16T09:13:42.524Z,12.73
2023-04-16T09:16:10.923Z,12.66
2023-04-16T09:18:38.462Z,12.66
2023-04-16T09:21:06.153Z,12.76
2023-04-16T09:23:38.513Z,12.90
2023-04-16T09:26:06.226Z,12.84
2023-04-16T09:28:40.498Z,12.57
2023-04-16T09:31:13.708Z,13.21
2023-04-16T09:33:41.892Z,12.96
2023-04-16T09:36:10.009Z,13.54
2023-04-16T09:38:47.306Z,13.62
2023-04-16T09:41:14.894Z,13.74
2023-04-16T09:43:48.648Z,13.38
2023-04-16T09:46:17.384Z,13.67
2023-04-16T09:48:46.048Z,13.35
2023-04-16T09:51:13.370Z,13.62
2023-04-16T09:53:40.669Z,13.52
2023-04-16T09:56:08.928Z,13.19
2023-04-16T09:58:36.782Z,13.22
2023-04-16T10:01:09.283Z,13.92
2023-04-16T10:03:39.558Z,14.01
2023-04-16T10:06:08.494Z,13.61
2023-04-16T10:08:35.902Z,13.88
2023-04-16T10:11:03.150Z,13.59
2023-04-16T10:13:31.952Z,13.31
2023-04-16T10:16:00.293Z,13.14
2023-04-16T10:18:28.534Z,12.88
2023-04-16T10:20:57.960Z,12.96
2023-04-16T10:23:26.470Z,12.80
2023-04-16T10:25:57.341Z,12.70
2023-04-16T10:28:25.356Z,12.88
2023-04-16T10:30:53.464Z,12.99
2023-04-16T10:33:21.981Z,13.21
2023-04-16T10:36:00.988Z,13.15
2023-04-16T10:38:38.470Z,13.16
2023-04-16T10:41:06.876Z,13.53
2023-04-16T10:43:39.878Z,13.97
2023-04-16T10:46:21.343Z,13.76
2023-04-16T10:48:50.975Z,14.33
2023-04-16T10:51:36.431Z,14.28
2023-04-16T10:54:20.662Z,14.33
2023-04-16T10:56:48.089Z,14.61
2023-04-16T10:59:19.017Z,14.29
2023-04-16T11:01:47.481Z,14.45
2023-04-16T11:04:34.488Z,14.12
2023-04-16T11:07:04.134Z,14.62
2023-04-16T11:09:52.542Z,14.70
2023-04-16T11:12:21.197Z,14.45
2023-04-16T11:14:50.240Z,14.69
2023-04-16T11:17:18.507Z,15.10
2023-04-16T11:19:45.841Z,14.91
2023-04-16T11:22:14.072Z,15.75
2023-04-16T11:24:41.373Z,15.66
2023-04-16T11:27:12.804Z,15.95
2023-04-16T11:29:40.279Z,15.39
2023-04-16T11:32:07.602Z,15.30
2023-04-16T11:34:34.967Z,15.17
2023-04-16T11:37:02.154Z,15.21
2023-04-16T11:39:29.390Z,15.69
2023-04-16T11:41:56.628Z,15.85
2023-04-16T11:44:26.646Z,15.77
2023-04-16T11:46:54.677Z,15.24
2023-04-16T11:49:27.855Z,15.47
2023-04-16T11:51:55.189Z,15.47
2023-04-16T11:54:24.315Z,15.12
2023-04-16T11:56:53.372Z,15.69
2023-04-16T11:59:22.044Z,15.73
2023-04-16T12:01:52.239Z,15.46
2023-04-16T12:04:22.383Z,15.71
2023-04-16T12:07:09.928Z,15.70
2023-04-16T12:09:40.747Z,15.75
2023-04-16T12:12:26.648Z,15.74
2023-04-16T12:14:53.998Z,15.32
2023-04-16T12:17:23.003Z,15.81
2023-04-16T12:19:51.756Z,15.01
2023-04-16T12:22:27.705Z,14.85
2023-04-16T12:25:02.232Z,14.85
2023-04-16T12:27:45.632Z,14.79
2023-04-16T12:30:13.388Z,14.67
2023-04-16T12:32:43.015Z,14.92
2023-04-16T12:35:11.774Z,14.36
2023-04-16T12:37:40.002Z,14.63
2023-04-16T12:40:08.157Z,14.43
2023-04-16T12:42:35.416Z,14.56
2023-04-16T12:45:03.724Z,14.53
2023-04-16T12:47:31.405Z,14.46
2023-04-16T12:50:00.380Z,14.47
2023-04-16T12:52:28.475Z,14.15
2023-04-16T12:54:55.727Z,14.10
2023-04-16T12:57:22.992Z,14.22
2023-04-16T12:59:50.268Z,14.24
2023-04-16T13:02:17.756Z,13.99
2023-04-16T13:04:45.852Z,14.12
2023-04-16T13:07:14.684Z,14.02
2023-04-16T13:09:42.418Z,14.09
2023-04-16T13:12:09.825Z,13.99
2023-04-16T13:14:38.471Z,14.18
2023-04-16T13:17:05.717Z,14.23
2023-04-16T13:19:33.120Z,14.65
2023-04-16T13:22:00.431Z,14.65
2023-04-16T13:24:30.425Z,14.84
2023-04-16T13:26:58.088Z,14.80
2023-04-16T13:29:25.373Z,15.03
2023-04-16T13:31:53.083Z,14.85
2023-04-16T13:34:20.449Z,14.77
2023-04-16T13:36:47.811Z,14.97
2023-04-16T13:39:15.235Z,14.49
2023-04-16T13:41:43.854Z,14.53
2023-04-16T13:44:11.168Z,14.39
2023-04-16T13:46:38.471Z,14.51
2023-04-16T13:49:06.489Z,14.74
2023-04-16T13:51:34.006Z,14.64
2023-04-16T13:54:01.493Z,14.53
2023-04-16T13:56:28.867Z,14.15
2023-04-16T13:58:57.591Z,14.52
2023-04-16T14:01:24.992Z,14.54
2023-04-16T14:03:52.405Z,14.53
2023-04-16T14:06:19.680Z,14.61
2023-04-16T14:08:46.917Z,14.70
2023-04-16T14:11:14.212Z,14.78
2023-04-16T14:13:41.903Z,14.79
2023-04-16T14:16:10.582Z,14.70
2023-04-16T14:18:37.941Z,14.67
2023-04-16T14:21:05.152Z,14.52
2023-04-16T14:23:32.976Z,14.70
2023-04-16T14:26:00.288Z,14.54
2023-04-16T14:28:27.600Z,14.40
2023-04-16T14:30:54.895Z,14.52
2023-04-16T14:33:23.583Z,14.59
2023-04-16T14:35:50.871Z,14.66
2023-04-16T14:38:18.216Z,14.75
2023-04-16T14:40:45.502Z,14.84
2023-04-16T14:43:12.826Z,14.53
2023-04-16T14:45:40.038Z,14.39
2023-04-16T14:48:07.490Z,14.40
2023-04-16T14:50:36.342Z,14.63
2023-04-16T14:53:03.903Z,14.59
2023-04-16T14:55:31.594Z,14.04
2023-04-16T14:57:58.853Z,13.94
2023-04-16T15:00:26.395Z,13.95
2023-04-16T15:02:53.986Z,13.78
2023-04-16T15:05:21.430Z,13.66
2023-04-16T15:07:50.145Z,13.62
2023-04-16T15:10:17.410Z,13.28
2023-04-16T15:12:44.617Z,13.41
2023-04-16T15:15:11.866Z,13.42
2023-04-16T15:17:39.642Z,13.27
2023-04-16T15:20:08.935Z,13.33
2023-04-16T15:22:36.366Z,13.31
2023-04-16T15:25:06.322Z,13.30
2023-04-16T15:27:33.709Z,13.31
2023-04-16T15:30:10.656Z,13.40
2023-04-16T15:32:38.329Z,13.27
2023-04-16T15:35:06.169Z,13.19
2023-04-16T15:37:33.552Z,13.31
2023-04-16T15:40:00.771Z,13.18
2023-04-16T15:42:28.285Z,13.26
2023-04-16T15:44:55.692Z,13.26
2023-04-16T15:47:24.387Z,13.33
2023-04-16T15:49:51.630Z,13.53
2023-04-16T15:52:18.949Z,13.34
2023-04-16T15:54:46.148Z,13.32
2023-04-16T15:57:13.778Z,13.37
2023-04-16T15:59:41.219Z,13.41
2023-04-16T16:02:08.493Z,13.54
2023-04-16T16:04:37.239Z,13.62
2023-04-16T16:07:04.703Z,13.88
2023-04-16T16:09:31.989Z,13.87
2023-04-16T16:11:59.310Z,13.74
2023-04-16T16:14:26.528Z,13.69
2023-04-16T16:16:53.860Z,13.62
2023-04-16T16:19:21.154Z,13.49
2023-04-16T16:21:50.099Z,13.63
2023-04-16T16:24:17.271Z,13.73
2023-04-16T16:26:44.510Z,13.49
2023-04-16T16:29:11.957Z,13.60
2023-04-16T16:31:39.253Z,13.38
2023-04-16T16:34:06.866Z,13.40
2023-04-16T16:36:34.187Z,13.38
2023-04-16T16:39:02.974Z,13.31
2023-04-16T16:41:30.792Z,13.34
2023-04-16T16:43:58.076Z,13.32
2023-04-16T16:46:25.793Z,13.34
2023-04-16T16:48:53.009Z,13.33
2023-04-16T16:51:20.366Z,13.22
2023-04-16T16:53:47.581Z,13.15
2023-04-16T16:56:16.332Z,13.10
2023-04-16T16:58:44.070Z,12.97
2023-04-16T17:01:11.391Z,13.01
2023-04-16T17:03:38.688Z,12.93
2023-04-16T17:06:06.193Z,12.88
2023-04-16T17:08:33.470Z,12.84
2023-04-16T17:11:02.854Z,12.75
2023-04-16T17:13:31.814Z,12.68
2023-04-16T17:15:59.131Z,12.75
2023-04-16T17:18:26.394Z,12.68
2023-04-16T17:20:53.748Z,12.65
2023-04-16T17:23:21.115Z,12.67
2023-04-16T17:25:48.415Z,12.60
2023-04-16T17:28:15.780Z,12.57
2023-04-16T17:30:44.992Z,12.50
2023-04-16T17:33:12.277Z,12.45
2023-04-16T17:35:40.982Z,12.41
2023-04-16T17:38:11.284Z,12.30
2023-04-16T17:40:38.544Z,12.33
2023-04-16T17:43:05.858Z,12.24
2023-04-16T17:45:33.749Z,12.30
2023-04-16T17:48:02.653Z,12.20
2023-04-16T17:50:30.137Z,12.17
2023-04-16T17:52:57.367Z,12.15
2023-04-16T17:55:24.777Z,12.09
2023-04-16T17:57:51.966Z,12.09
2023-04-16T18:00:20.438Z,11.96
2023-04-16T18:02:47.886Z,11.98
2023-04-16T18:05:16.603Z,11.96
2023-04-16T18:07:43.795Z,11.90
2023-04-16T18:10:11.007Z,11.86
2023-04-16T18:12:38.261Z,11.88
2023-04-16T18:15:06.570Z,11.80
2023-04-16T18:17:33.983Z,11.78
2023-04-16T18:20:01.330Z,11.77
2023-04-16T18:22:29.952Z,11.71
2023-04-16T18:24:58.097Z,11.73
2023-04-16T18:27:25.405Z,11.64
2023-04-16T18:29:54.699Z,11.64
2023-04-16T18:32:22.598Z,11.59
2023-04-16T18:34:49.978Z,11.57
2023-04-16T18:37:17.228Z,11.46
2023-04-16T18:39:45.883Z,11.42
2023-04-16T18:42:13.108Z,11.45
2023-04-16T18:44:40.362Z,11.40
2023-04-16T18:47:07.576Z,11.43
2023-04-16T18:49:34.868Z,11.36
2023-04-16T18:52:02.067Z,11.36
2023-04-16T18:54:29.368Z,11.33
2023-04-16T18:56:59.665Z,11.29
2023-04-16T18:59:28.116Z,11.24
2023-04-16T19:01:55.387Z,11.19
2023-04-16T19:04:22.838Z,11.15
2023-04-16T19:06:50.186Z,11.17
2023-04-16T19:09:17.675Z,11.17
2023-04-16T19:11:44.941Z,11.11
2023-04-16T19:14:13.518Z,11.14
2023-04-16T19:16:40.896Z,11.05
2023-04-16T19:19:08.451Z,11.07
2023-04-16T19:21:35.815Z,11.00
2023-04-16T19:24:03.485Z,10.93
2023-04-16T19:26:30.825Z,10.83
2023-04-16T19:28:58.072Z,10.83
2023-04-16T19:31:27.375Z,10.81
2023-04-16T19:33:54.692Z,10.74
2023-04-16T19:36:21.977Z,10.74
2023-04-16T19:38:49.321Z,10.72
2023-04-16T19:41:16.547Z,10.71
2023-04-16T19:43:43.754Z,10.68
2023-04-16T19:46:11.093Z,10.65
2023-04-16T19:48:39.814Z,10.65
2023-04-16T19:51:07.203Z,10.63
2023-04-16T19:53:34.478Z,10.64
2023-04-16T19:56:01.908Z,10.61
2023-04-16T19:58:29.174Z,10.56
2023-04-16T20:00:56.477Z,10.56
2023-04-16T20:03:23.865Z,10.57
2023-04-16T20:05:52.457Z,10.49
2023-04-16T20:08:19.716Z,10.51
2023-04-16T20:10:47.056Z,10.50
2023-04-16T20:13:15.222Z,10.47
2023-04-16T20:15:43.226Z,10.43
2023-04-16T20:18:10.448Z,10.44
2023-04-16T20:20:37.656Z,10.45
2023-04-16T20:23:06.318Z,10.44
2023-04-16T20:25:33.570Z,10.40
2023-04-16T20:28:00.902Z,10.40
2023-04-16T20:30:28.096Z,10.40
2023-04-16T20:32:55.518Z,10.42
2023-04-16T20:35:22.795Z,10.40
2023-04-16T20:37:50.022Z,10.37
2023-04-16T20:40:18.865Z,10.34
2023-04-16T20:42:46.422Z,10.36
2023-04-16T20:45:13.793Z,10.32
2023-04-16T20:47:41.155Z,10.36
2023-04-16T20:50:09.333Z,10.34
2023-04-16T20:52:36.742Z,10.33
2023-04-16T20:55:04.511Z,10.34
2023-04-16T20:57:33.096Z,10.33
2023-04-16T21:00:00.297Z,10.32
2023-04-16T21:02:27.731Z,10.28
2023-04-16T21:04:55.330Z,10.28
2023-04-16T21:07:22.716Z,10.27
2023-04-16T21:09:49.993Z,10.25
2023-04-16T21:12:17.235Z,10.21
2023-04-16T21:14:45.824Z,10.20
2023-04-16T21:17:13.045Z,10.22
2023-04-16T21:19:40.287Z,10.21
2023-04-16T21:22:07.618Z,10.14
2023-04-16T21:24:34.852Z,10.14
2023-04-16T21:27:02.144Z,10.09
2023-04-16T21:29:29.833Z,10.10
2023-04-16T21:31:58.494Z,10.11
2023-04-16T21:34:25.911Z,10.07
2023-04-16T21:36:53.196Z,10.06
2023-04-16T21:39:20.398Z,10.04
2023-04-16T21:41:47.731Z,10.05
2023-04-16T21:44:14.951Z,10.01
2023-04-16T21:46:42.317Z,10.01
2023-04-16T21:49:11.358Z,9.98
2023-04-16T21:51:40.467Z,9.95
2023-04-16T21:54:08.166Z,9.90
2023-04-16T21:56:35.868Z,9.85
2023-04-16T21:59:03.317Z,9.88
2023-04-16T22:01:30.599Z,9.90
2023-04-16T22:03:57.928Z,9.85
2023-04-16T22:06:26.581Z,9.81
2023-04-16T22:08:53.887Z,9.84
2023-04-16T22:11:21.349Z,9.84
2023-04-16T22:13:48.665Z,9.72
2023-04-16T22:16:16.026Z,9.77
2023-04-16T22:18:43.309Z,9.70
2023-04-16T22:21:10.751Z,9.70
2023-04-16T22:23:39.398Z,9.68
2023-04-16T22:26:06.696Z,9.66
2023-04-16T22:28:34.026Z,9.63
2023-04-16T22:31:01.385Z,9.59
2023-04-16T22:33:29.387Z,9.60
2023-04-16T22:35:56.656Z,9.55
2023-04-16T22:38:23.991Z,9.47
2023-04-16T22:40:52.655Z,9.43
2023-04-16T22:43:19.898Z,9.36
2023-04-16T22:45:47.734Z,9.37
2023-04-16T22:48:14.971Z,9.31
2023-04-16T22:50:45.396Z,9.30
2023-04-16T22:53:12.813Z,9.23
2023-04-16T22:55:40.113Z,9.23
2023-04-16T22:58:08.772Z,9.22
2023-04-16T23:00:36.007Z,9.23
2023-04-16T23:03:03.505Z,9.23
2023-04-16T23:05:30.965Z,9.21
2023-04-16T23:07:58.239Z,9.21
2023-04-16T23:10:25.480Z,9.21
2023-04-16T23:12:52.758Z,9.15
2023-04-16T23:15:21.483Z,9.16
2023-04-16T23:17:48.760Z,9.10
2023-04-16T23:20:16.335Z,9.14
2023-04-16T23:22:43.581Z,9.11
2023-04-16T23:25:10.811Z,9.09
2023-04-16T23:27:38.178Z,9.08
2023-04-16T23:30:06.546Z,9.06
2023-04-16T23:32:35.202Z,9.09
2023-04-16T23:35:02.568Z,9.06
2023-04-16T23:37:29.904Z,9.07
2023-04-16T23:39:57.195Z,9.05
2023-04-16T23:42:24.361Z,9.02
2023-04-16T23:44:51.654Z,9.02
2023-04-16T23:47:19.098Z,9.00
2023-04-16T23:49:48.029Z,8.98
2023-04-16T23:52:15.292Z,9.00
2023-04-16T23:54:42.594Z,9.06
2023-04-16T23:57:09.768Z,9.03
2023-04-16T23:59:37.815Z,9.02
